sensor_id;sensor_type;location;lat;lon;timestamp;P1;durP1;ratioP1;P2;durP2;ratioP2
27558;SDS011;15002;52.028;5.670;2022-08-01T00:01:03;14.30;;;8.90;;
27558;SDS011;15002;52.028;5.670;2022-08-01T00:03:28;13.48;;;9.45;;
27558;SDS011;15002;52.028;5.670;2022-08-01T00:05:54;13.65;;;9.93;;
27558;SDS011;15002;52.028;5.670;2022-08-01T00:08:20;14.63;;;10.07;;
27558;SDS011;15002;52.028;5.670;2022-08-01T00:10:45;15.40;;;10.45;;
27558;SDS011;15002;52.028;5.670;2022-08-01T00:13:11;14.05;;;10.30;;
27558;SDS011;15002;52.028;5.670;2022-08-01T00:15:36;15.75;;;10.95;;
27558;SDS011;15002;52.028;5.670;2022-08-01T00:18:02;14.93;;;10.80;;
27558;SDS011;15002;52.028;5.670;2022-08-01T00:20:28;16.33;;;11.45;;
27558;SDS011;15002;52.028;5.670;2022-08-01T00:22:53;16.60;;;10.27;;
27558;SDS011;15002;52.028;5.670;2022-08-01T00:25:19;15.40;;;10.75;;
27558;SDS011;15002;52.028;5.670;2022-08-01T00:27:44;15.73;;;10.95;;
27558;SDS011;15002;52.028;5.670;2022-08-01T00:30:10;13.85;;;10.50;;
27558;SDS011;15002;52.028;5.670;2022-08-01T00:32:36;15.85;;;11.00;;
27558;SDS011;15002;52.028;5.670;2022-08-01T00:35:01;15.52;;;10.43;;
27558;SDS011;15002;52.028;5.670;2022-08-01T00:37:27;16.48;;;11.20;;
27558;SDS011;15002;52.028;5.670;2022-08-01T00:39:53;12.57;;;9.48;;
27558;SDS011;15002;52.028;5.670;2022-08-01T00:42:18;13.73;;;10.23;;
27558;SDS011;15002;52.028;5.670;2022-08-01T00:44:44;11.85;;;8.63;;
27558;SDS011;15002;52.028;5.670;2022-08-01T00:47:10;11.60;;;8.35;;
27558;SDS011;15002;52.028;5.670;2022-08-01T00:49:35;11.13;;;8.48;;
27558;SDS011;15002;52.028;5.670;2022-08-01T00:52:02;10.13;;;7.80;;
27558;SDS011;15002;52.028;5.670;2022-08-01T00:54:29;10.18;;;7.32;;
27558;SDS011;15002;52.028;5.670;2022-08-01T00:56:55;10.32;;;7.30;;
27558;SDS011;15002;52.028;5.670;2022-08-01T00:59:22;9.55;;;6.90;;
27558;SDS011;15002;52.028;5.670;2022-08-01T01:01:48;9.40;;;6.70;;
27558;SDS011;15002;52.028;5.670;2022-08-01T01:04:14;11.07;;;7.70;;
27558;SDS011;15002;52.028;5.670;2022-08-01T01:06:57;12.63;;;7.68;;
27558;SDS011;15002;52.028;5.670;2022-08-01T01:17:41;13.88;;;8.93;;
27558;SDS011;15002;52.028;5.670;2022-08-01T01:20:13;15.52;;;9.30;;
27558;SDS011;15002;52.028;5.670;2022-08-01T01:28:37;15.57;;;9.82;;
27558;SDS011;15002;52.028;5.670;2022-08-01T01:31:14;17.30;;;10.18;;
27558;SDS011;15002;52.028;5.670;2022-08-01T01:33:44;15.98;;;9.40;;
27558;SDS011;15002;52.028;5.670;2022-08-01T01:36:10;14.82;;;9.20;;
27558;SDS011;15002;52.028;5.670;2022-08-01T01:38:42;13.60;;;8.50;;
27558;SDS011;15002;52.028;5.670;2022-08-01T01:41:11;15.88;;;8.95;;
27558;SDS011;15002;52.028;5.670;2022-08-01T01:43:39;14.43;;;9.57;;
27558;SDS011;15002;52.028;5.670;2022-08-01T01:46:05;14.80;;;9.32;;
27558;SDS011;15002;52.028;5.670;2022-08-01T01:48:33;15.98;;;9.15;;
27558;SDS011;15002;52.028;5.670;2022-08-01T01:51:00;14.40;;;8.77;;
27558;SDS011;15002;52.028;5.670;2022-08-01T01:53:27;13.32;;;8.60;;
27558;SDS011;15002;52.028;5.670;2022-08-01T01:55:55;13.15;;;8.57;;
27558;SDS011;15002;52.028;5.670;2022-08-01T01:58:23;14.52;;;8.52;;
27558;SDS011;15002;52.028;5.670;2022-08-01T02:00:51;14.90;;;8.35;;
27558;SDS011;15002;52.028;5.670;2022-08-01T02:03:18;12.00;;;7.47;;
27558;SDS011;15002;52.028;5.670;2022-08-01T02:05:44;13.25;;;7.68;;
27558;SDS011;15002;52.028;5.670;2022-08-01T02:08:12;12.25;;;7.40;;
27558;SDS011;15002;52.028;5.670;2022-08-01T02:10:41;9.32;;;6.88;;
27558;SDS011;15002;52.028;5.670;2022-08-01T02:13:28;10.13;;;6.60;;
27558;SDS011;15002;52.028;5.670;2022-08-01T02:15:56;11.45;;;6.55;;
27558;SDS011;15002;52.028;5.670;2022-08-01T02:18:22;8.95;;;6.45;;
27558;SDS011;15002;52.028;5.670;2022-08-01T02:20:48;9.73;;;6.57;;
27558;SDS011;15002;52.028;5.670;2022-08-01T02:23:16;11.30;;;6.80;;
27558;SDS011;15002;52.028;5.670;2022-08-01T02:25:43;8.50;;;6.30;;
27558;SDS011;15002;52.028;5.670;2022-08-01T02:28:13;13.23;;;7.25;;
27558;SDS011;15002;52.028;5.670;2022-08-01T02:30:53;11.30;;;6.85;;
27558;SDS011;15002;52.028;5.670;2022-08-01T02:33:22;12.02;;;7.10;;
27558;SDS011;15002;52.028;5.670;2022-08-01T02:35:51;11.82;;;7.80;;
27558;SDS011;15002;52.028;5.670;2022-08-01T02:38:20;11.45;;;7.30;;
27558;SDS011;15002;52.028;5.670;2022-08-01T02:40:49;13.87;;;8.77;;
27558;SDS011;15002;52.028;5.670;2022-08-01T02:43:18;14.05;;;8.20;;
27558;SDS011;15002;52.028;5.670;2022-08-01T02:45:47;12.80;;;7.60;;
27558;SDS011;15002;52.028;5.670;2022-08-01T02:48:19;12.52;;;7.68;;
27558;SDS011;15002;52.028;5.670;2022-08-01T02:50:47;13.68;;;8.88;;
27558;SDS011;15002;52.028;5.670;2022-08-01T02:53:14;16.75;;;8.13;;
27558;SDS011;15002;52.028;5.670;2022-08-01T02:55:43;13.02;;;8.43;;
27558;SDS011;15002;52.028;5.670;2022-08-01T02:58:12;13.40;;;8.32;;
27558;SDS011;15002;52.028;5.670;2022-08-01T03:00:41;13.85;;;9.18;;
27558;SDS011;15002;52.028;5.670;2022-08-01T03:03:09;12.93;;;8.20;;
27558;SDS011;15002;52.028;5.670;2022-08-01T03:05:36;17.67;;;8.73;;
27558;SDS011;15002;52.028;5.670;2022-08-01T03:08:05;15.38;;;8.80;;
27558;SDS011;15002;52.028;5.670;2022-08-01T03:10:32;12.57;;;8.50;;
27558;SDS011;15002;52.028;5.670;2022-08-01T03:13:01;14.52;;;7.90;;
27558;SDS011;15002;52.028;5.670;2022-08-01T03:15:31;15.48;;;8.38;;
27558;SDS011;15002;52.028;5.670;2022-08-01T03:17:58;12.40;;;8.27;;
27558;SDS011;15002;52.028;5.670;2022-08-01T03:20:25;14.50;;;8.45;;
27558;SDS011;15002;52.028;5.670;2022-08-01T03:22:54;12.70;;;8.80;;
27558;SDS011;15002;52.028;5.670;2022-08-01T03:25:22;11.73;;;8.13;;
27558;SDS011;15002;52.028;5.670;2022-08-01T03:27:56;12.43;;;8.15;;
27558;SDS011;15002;52.028;5.670;2022-08-01T03:30:26;11.80;;;8.05;;
27558;SDS011;15002;52.028;5.670;2022-08-01T03:32:52;11.68;;;7.80;;
27558;SDS011;15002;52.028;5.670;2022-08-01T03:35:19;12.10;;;8.00;;
27558;SDS011;15002;52.028;5.670;2022-08-01T03:37:47;12.57;;;7.65;;
27558;SDS011;15002;52.028;5.670;2022-08-01T03:40:19;10.93;;;7.35;;
27558;SDS011;15002;52.028;5.670;2022-08-01T03:42:50;12.63;;;7.18;;
27558;SDS011;15002;52.028;5.670;2022-08-01T03:45:22;11.80;;;7.53;;
27558;SDS011;15002;52.028;5.670;2022-08-01T03:48:00;10.23;;;6.97;;
27558;SDS011;15002;52.028;5.670;2022-08-01T03:50:28;14.20;;;8.07;;
27558;SDS011;15002;52.028;5.670;2022-08-01T03:52:59;11.88;;;7.85;;
27558;SDS011;15002;52.028;5.670;2022-08-01T03:55:27;13.48;;;7.90;;
27558;SDS011;15002;52.028;5.670;2022-08-01T03:57:54;11.40;;;7.32;;
27558;SDS011;15002;52.028;5.670;2022-08-01T04:00:22;12.15;;;7.55;;
27558;SDS011;15002;52.028;5.670;2022-08-01T04:02:49;11.13;;;7.50;;
27558;SDS011;15002;52.028;5.670;2022-08-01T04:05:15;9.43;;;7.35;;
27558;SDS011;15002;52.028;5.670;2022-08-01T04:07:45;10.40;;;7.65;;
27558;SDS011;15002;52.028;5.670;2022-08-01T04:10:12;13.02;;;8.30;;
27558;SDS011;15002;52.028;5.670;2022-08-01T04:12:38;12.77;;;8.02;;
27558;SDS011;15002;52.028;5.670;2022-08-01T04:15:04;13.65;;;8.25;;
27558;SDS011;15002;52.028;5.670;2022-08-01T04:17:31;10.82;;;7.68;;
27558;SDS011;15002;52.028;5.670;2022-08-01T04:19:56;12.27;;;8.00;;
27558;SDS011;15002;52.028;5.670;2022-08-01T04:22:22;11.65;;;7.57;;
27558;SDS011;15002;52.028;5.670;2022-08-01T04:24:49;11.38;;;8.05;;
27558;SDS011;15002;52.028;5.670;2022-08-01T04:27:19;12.82;;;8.48;;
27558;SDS011;15002;52.028;5.670;2022-08-01T04:29:53;12.73;;;8.40;;
27558;SDS011;15002;52.028;5.670;2022-08-01T04:32:22;10.50;;;7.45;;
27558;SDS011;15002;52.028;5.670;2022-08-01T04:34:50;11.60;;;7.65;;
27558;SDS011;15002;52.028;5.670;2022-08-01T04:37:20;10.60;;;7.15;;
27558;SDS011;15002;52.028;5.670;2022-08-01T04:39:50;9.98;;;6.95;;
27558;SDS011;15002;52.028;5.670;2022-08-01T04:42:17;10.63;;;7.68;;
27558;SDS011;15002;52.028;5.670;2022-08-01T04:44:44;10.63;;;7.50;;
27558;SDS011;15002;52.028;5.670;2022-08-01T04:47:10;10.20;;;7.55;;
27558;SDS011;15002;52.028;5.670;2022-08-01T04:49:36;9.77;;;6.75;;
27558;SDS011;15002;52.028;5.670;2022-08-01T04:52:02;7.55;;;6.25;;
27558;SDS011;15002;52.028;5.670;2022-08-01T04:54:32;11.15;;;7.03;;
27558;SDS011;15002;52.028;5.670;2022-08-01T04:57:01;8.85;;;6.78;;
27558;SDS011;15002;52.028;5.670;2022-08-01T04:59:32;9.80;;;7.18;;
27558;SDS011;15002;52.028;5.670;2022-08-01T05:02:16;9.32;;;6.75;;
27558;SDS011;15002;52.028;5.670;2022-08-01T05:04:43;7.60;;;6.35;;
27558;SDS011;15002;52.028;5.670;2022-08-01T05:07:10;9.38;;;6.93;;
27558;SDS011;15002;52.028;5.670;2022-08-01T05:09:36;9.55;;;6.75;;
27558;SDS011;15002;52.028;5.670;2022-08-01T05:12:03;9.20;;;6.38;;
27558;SDS011;15002;52.028;5.670;2022-08-01T05:14:31;8.73;;;7.35;;
27558;SDS011;15002;52.028;5.670;2022-08-01T05:16:58;11.43;;;7.68;;
27558;SDS011;15002;52.028;5.670;2022-08-01T05:19:25;11.88;;;7.22;;
27558;SDS011;15002;52.028;5.670;2022-08-01T05:21:52;9.02;;;7.05;;
27558;SDS011;15002;52.028;5.670;2022-08-01T05:24:17;7.10;;;5.18;;
27558;SDS011;15002;52.028;5.670;2022-08-01T05:26:43;8.25;;;5.55;;
27558;SDS011;15002;52.028;5.670;2022-08-01T05:29:08;9.95;;;6.22;;
27558;SDS011;15002;52.028;5.670;2022-08-01T05:31:34;6.72;;;5.30;;
27558;SDS011;15002;52.028;5.670;2022-08-01T05:34:03;7.60;;;5.90;;
27558;SDS011;15002;52.028;5.670;2022-08-01T05:36:28;5.75;;;5.05;;
27558;SDS011;15002;52.028;5.670;2022-08-01T05:38:54;4.50;;;3.95;;
27558;SDS011;15002;52.028;5.670;2022-08-01T05:41:20;5.20;;;3.95;;
27558;SDS011;15002;52.028;5.670;2022-08-01T05:43:46;4.00;;;3.20;;
27558;SDS011;15002;52.028;5.670;2022-08-01T05:46:12;4.57;;;3.13;;
27558;SDS011;15002;52.028;5.670;2022-08-01T05:48:37;3.97;;;2.60;;
27558;SDS011;15002;52.028;5.670;2022-08-01T05:51:03;3.97;;;2.63;;
27558;SDS011;15002;52.028;5.670;2022-08-01T05:53:29;4.47;;;2.30;;
27558;SDS011;15002;52.028;5.670;2022-08-01T05:55:55;3.58;;;2.30;;
27558;SDS011;15002;52.028;5.670;2022-08-01T05:58:21;3.03;;;2.22;;
27558;SDS011;15002;52.028;5.670;2022-08-01T06:00:47;3.55;;;2.75;;
27558;SDS011;15002;52.028;5.670;2022-08-01T06:03:13;2.95;;;2.25;;
27558;SDS011;15002;52.028;5.670;2022-08-01T06:05:39;2.42;;;2.00;;
27558;SDS011;15002;52.028;5.670;2022-08-01T06:08:05;3.17;;;2.03;;
27558;SDS011;15002;52.028;5.670;2022-08-01T06:10:30;2.38;;;2.17;;
27558;SDS011;15002;52.028;5.670;2022-08-01T06:12:56;2.63;;;2.10;;
27558;SDS011;15002;52.028;5.670;2022-08-01T06:15:22;2.20;;;2.00;;
27558;SDS011;15002;52.028;5.670;2022-08-01T06:17:47;2.42;;;1.90;;
27558;SDS011;15002;52.028;5.670;2022-08-01T06:20:13;2.17;;;1.98;;
27558;SDS011;15002;52.028;5.670;2022-08-01T06:22:39;2.22;;;1.88;;
27558;SDS011;15002;52.028;5.670;2022-08-01T06:25:04;2.30;;;1.70;;
27558;SDS011;15002;52.028;5.670;2022-08-01T06:27:33;2.45;;;2.08;;
27558;SDS011;15002;52.028;5.670;2022-08-01T06:30:00;3.00;;;2.13;;
27558;SDS011;15002;52.028;5.670;2022-08-01T06:32:25;2.33;;;2.13;;
27558;SDS011;15002;52.028;5.670;2022-08-01T06:34:52;1.88;;;1.77;;
27558;SDS011;15002;52.028;5.670;2022-08-01T06:37:18;3.38;;;2.33;;
27558;SDS011;15002;52.028;5.670;2022-08-01T06:39:44;2.63;;;2.38;;
27558;SDS011;15002;52.028;5.670;2022-08-01T06:42:10;5.18;;;2.83;;
27558;SDS011;15002;52.028;5.670;2022-08-01T06:44:35;4.07;;;2.50;;
27558;SDS011;15002;52.028;5.670;2022-08-01T06:47:01;3.00;;;2.15;;
27558;SDS011;15002;52.028;5.670;2022-08-01T06:49:27;5.03;;;2.63;;
27558;SDS011;15002;52.028;5.670;2022-08-01T06:51:53;2.78;;;2.55;;
27558;SDS011;15002;52.028;5.670;2022-08-01T06:54:18;3.25;;;2.83;;
27558;SDS011;15002;52.028;5.670;2022-08-01T06:56:44;2.63;;;2.42;;
27558;SDS011;15002;52.028;5.670;2022-08-01T06:59:09;4.30;;;2.60;;
27558;SDS011;15002;52.028;5.670;2022-08-01T07:01:35;4.03;;;2.72;;
27558;SDS011;15002;52.028;5.670;2022-08-01T07:04:01;5.97;;;2.78;;
27558;SDS011;15002;52.028;5.670;2022-08-01T07:06:27;4.47;;;3.42;;
27558;SDS011;15002;52.028;5.670;2022-08-01T07:08:53;4.22;;;2.88;;
27558;SDS011;15002;52.028;5.670;2022-08-01T07:11:19;4.88;;;2.88;;
27558;SDS011;15002;52.028;5.670;2022-08-01T07:13:46;4.93;;;3.08;;
27558;SDS011;15002;52.028;5.670;2022-08-01T07:16:12;3.75;;;2.60;;
27558;SDS011;15002;52.028;5.670;2022-08-01T07:18:38;3.00;;;2.47;;
27558;SDS011;15002;52.028;5.670;2022-08-01T07:21:04;4.03;;;2.55;;
27558;SDS011;15002;52.028;5.670;2022-08-01T07:23:29;3.90;;;2.47;;
27558;SDS011;15002;52.028;5.670;2022-08-01T07:25:55;2.95;;;2.65;;
27558;SDS011;15002;52.028;5.670;2022-08-01T07:28:21;3.65;;;2.10;;
27558;SDS011;15002;52.028;5.670;2022-08-01T07:30:46;5.05;;;2.65;;
27558;SDS011;15002;52.028;5.670;2022-08-01T07:33:12;2.95;;;2.30;;
27558;SDS011;15002;52.028;5.670;2022-08-01T07:35:38;3.63;;;2.50;;
27558;SDS011;15002;52.028;5.670;2022-08-01T07:38:05;2.90;;;2.00;;
27558;SDS011;15002;52.028;5.670;2022-08-01T07:40:33;3.83;;;2.30;;
27558;SDS011;15002;52.028;5.670;2022-08-01T07:42:59;2.60;;;2.40;;
27558;SDS011;15002;52.028;5.670;2022-08-01T07:45:25;2.75;;;2.22;;
27558;SDS011;15002;52.028;5.670;2022-08-01T07:47:51;2.75;;;2.45;;
27558;SDS011;15002;52.028;5.670;2022-08-01T07:50:18;2.85;;;2.10;;
27558;SDS011;15002;52.028;5.670;2022-08-01T07:52:44;3.08;;;2.28;;
27558;SDS011;15002;52.028;5.670;2022-08-01T07:55:10;2.85;;;2.30;;
27558;SDS011;15002;52.028;5.670;2022-08-01T07:57:36;2.63;;;2.30;;
27558;SDS011;15002;52.028;5.670;2022-08-01T08:00:03;3.63;;;2.17;;
27558;SDS011;15002;52.028;5.670;2022-08-01T08:02:30;2.60;;;2.25;;
27558;SDS011;15002;52.028;5.670;2022-08-01T08:04:56;2.53;;;2.33;;
27558;SDS011;15002;52.028;5.670;2022-08-01T08:07:22;3.83;;;2.30;;
27558;SDS011;15002;52.028;5.670;2022-08-01T08:09:47;3.13;;;2.40;;
27558;SDS011;15002;52.028;5.670;2022-08-01T08:12:13;4.32;;;2.42;;
27558;SDS011;15002;52.028;5.670;2022-08-01T08:14:39;3.17;;;2.55;;
27558;SDS011;15002;52.028;5.670;2022-08-01T08:17:05;3.22;;;2.75;;
27558;SDS011;15002;52.028;5.670;2022-08-01T08:19:30;3.63;;;2.42;;
27558;SDS011;15002;52.028;5.670;2022-08-01T08:21:58;3.85;;;2.50;;
27558;SDS011;15002;52.028;5.670;2022-08-01T08:24:24;2.50;;;2.28;;
27558;SDS011;15002;52.028;5.670;2022-08-01T08:26:52;3.80;;;2.78;;
27558;SDS011;15002;52.028;5.670;2022-08-01T08:29:23;3.65;;;2.40;;
27558;SDS011;15002;52.028;5.670;2022-08-01T08:31:51;5.38;;;2.38;;
27558;SDS011;15002;52.028;5.670;2022-08-01T08:34:18;4.05;;;2.70;;
27558;SDS011;15002;52.028;5.670;2022-08-01T08:36:44;3.92;;;2.45;;
27558;SDS011;15002;52.028;5.670;2022-08-01T08:39:10;4.25;;;2.80;;
27558;SDS011;15002;52.028;5.670;2022-08-01T08:41:36;3.47;;;3.10;;
27558;SDS011;15002;52.028;5.670;2022-08-01T08:44:05;3.67;;;2.70;;
27558;SDS011;15002;52.028;5.670;2022-08-01T08:46:32;3.97;;;2.50;;
27558;SDS011;15002;52.028;5.670;2022-08-01T08:48:59;7.95;;;3.95;;
27558;SDS011;15002;52.028;5.670;2022-08-01T08:51:27;6.38;;;3.13;;
27558;SDS011;15002;52.028;5.670;2022-08-01T08:53:56;6.88;;;3.30;;
27558;SDS011;15002;52.028;5.670;2022-08-01T08:56:25;5.97;;;3.35;;
27558;SDS011;15002;52.028;5.670;2022-08-01T08:58:55;8.55;;;4.38;;
27558;SDS011;15002;52.028;5.670;2022-08-01T09:01:20;10.85;;;4.68;;
27558;SDS011;15002;52.028;5.670;2022-08-01T09:03:46;9.98;;;4.60;;
27558;SDS011;15002;52.028;5.670;2022-08-01T09:06:12;10.55;;;4.50;;
27558;SDS011;15002;52.028;5.670;2022-08-01T09:08:39;13.52;;;4.78;;
27558;SDS011;15002;52.028;5.670;2022-08-01T09:11:05;14.90;;;4.80;;
27558;SDS011;15002;52.028;5.670;2022-08-01T09:13:31;12.68;;;4.85;;
27558;SDS011;15002;52.028;5.670;2022-08-01T09:15:56;11.95;;;4.70;;
27558;SDS011;15002;52.028;5.670;2022-08-01T09:18:31;11.38;;;4.25;;
27558;SDS011;15002;52.028;5.670;2022-08-01T09:23:35;8.00;;;4.40;;
27558;SDS011;15002;52.028;5.670;2022-08-01T09:26:05;11.50;;;4.55;;
27558;SDS011;15002;52.028;5.670;2022-08-01T09:28:31;10.77;;;4.32;;
27558;SDS011;15002;52.028;5.670;2022-08-01T09:30:57;11.73;;;4.97;;
27558;SDS011;15002;52.028;5.670;2022-08-01T09:33:23;11.25;;;3.97;;
27558;SDS011;15002;52.028;5.670;2022-08-01T09:35:55;9.27;;;3.47;;
27558;SDS011;15002;52.028;5.670;2022-08-01T09:38:23;10.80;;;4.05;;
27558;SDS011;15002;52.028;5.670;2022-08-01T09:40:58;7.60;;;3.50;;
27558;SDS011;15002;52.028;5.670;2022-08-01T09:43:26;8.40;;;3.22;;
27558;SDS011;15002;52.028;5.670;2022-08-01T09:45:53;13.13;;;3.80;;
27558;SDS011;15002;52.028;5.670;2022-08-01T09:48:22;10.60;;;4.15;;
27558;SDS011;15002;52.028;5.670;2022-08-01T09:50:49;9.18;;;4.13;;
27558;SDS011;15002;52.028;5.670;2022-08-01T09:53:16;8.63;;;3.33;;
27558;SDS011;15002;52.028;5.670;2022-08-01T09:55:43;8.60;;;3.85;;
27558;SDS011;15002;52.028;5.670;2022-08-01T09:58:12;7.75;;;3.75;;
27558;SDS011;15002;52.028;5.670;2022-08-01T10:00:38;6.75;;;3.30;;
27558;SDS011;15002;52.028;5.670;2022-08-01T10:03:20;10.23;;;3.13;;
27558;SDS011;15002;52.028;5.670;2022-08-01T10:05:48;10.05;;;3.38;;
27558;SDS011;15002;52.028;5.670;2022-08-01T10:08:14;12.05;;;3.95;;
27558;SDS011;15002;52.028;5.670;2022-08-01T10:10:39;14.43;;;4.20;;
27558;SDS011;15002;52.028;5.670;2022-08-01T10:13:05;9.73;;;4.10;;
27558;SDS011;15002;52.028;5.670;2022-08-01T10:15:32;6.97;;;3.88;;
27558;SDS011;15002;52.028;5.670;2022-08-01T10:18:04;12.20;;;3.95;;
27558;SDS011;15002;52.028;5.670;2022-08-01T10:20:32;7.82;;;3.47;;
27558;SDS011;15002;52.028;5.670;2022-08-01T10:23:00;10.13;;;4.00;;
27558;SDS011;15002;52.028;5.670;2022-08-01T10:25:28;8.35;;;4.13;;
27558;SDS011;15002;52.028;5.670;2022-08-01T10:30:24;8.02;;;3.28;;
27558;SDS011;15002;52.028;5.670;2022-08-01T10:32:51;13.27;;;3.88;;
27558;SDS011;15002;52.028;5.670;2022-08-01T10:35:19;7.10;;;3.40;;
27558;SDS011;15002;52.028;5.670;2022-08-01T10:37:45;6.97;;;3.75;;
27558;SDS011;15002;52.028;5.670;2022-08-01T10:40:14;7.85;;;4.10;;
27558;SDS011;15002;52.028;5.670;2022-08-01T10:42:41;8.02;;;3.60;;
27558;SDS011;15002;52.028;5.670;2022-08-01T10:45:17;4.82;;;2.60;;
27558;SDS011;15002;52.028;5.670;2022-08-01T10:47:59;5.40;;;2.50;;
27558;SDS011;15002;52.028;5.670;2022-08-01T10:50:44;6.13;;;2.90;;
27558;SDS011;15002;52.028;5.670;2022-08-01T10:53:12;5.20;;;2.20;;
27558;SDS011;15002;52.028;5.670;2022-08-01T10:55:57;7.00;;;2.35;;
27558;SDS011;15002;52.028;5.670;2022-08-01T10:58:35;5.68;;;2.17;;
27558;SDS011;15002;52.028;5.670;2022-08-01T11:03:57;6.57;;;2.30;;
27558;SDS011;15002;52.028;5.670;2022-08-01T11:06:28;6.80;;;3.92;;
27558;SDS011;15002;52.028;5.670;2022-08-01T11:09:01;5.68;;;2.30;;
27558;SDS011;15002;52.028;5.670;2022-08-01T11:17:32;11.88;;;2.92;;
27558;SDS011;15002;52.028;5.670;2022-08-01T11:20:19;7.95;;;2.28;;
27558;SDS011;15002;52.028;5.670;2022-08-01T11:25:27;7.10;;;2.55;;
27558;SDS011;15002;52.028;5.670;2022-08-01T11:30:46;8.40;;;2.40;;
27558;SDS011;15002;52.028;5.670;2022-08-01T11:33:13;8.45;;;2.67;;
27558;SDS011;15002;52.028;5.670;2022-08-01T11:41:29;6.05;;;1.90;;
27558;SDS011;15002;52.028;5.670;2022-08-01T11:49:27;5.82;;;2.00;;
27558;SDS011;15002;52.028;5.670;2022-08-01T11:51:57;5.22;;;1.85;;
27558;SDS011;15002;52.028;5.670;2022-08-01T11:54:30;8.07;;;2.10;;
27558;SDS011;15002;52.028;5.670;2022-08-01T11:56:58;5.80;;;2.20;;
27558;SDS011;15002;52.028;5.670;2022-08-01T11:59:25;4.65;;;1.80;;
27558;SDS011;15002;52.028;5.670;2022-08-01T12:01:52;7.20;;;2.15;;
27558;SDS011;15002;52.028;5.670;2022-08-01T12:04:18;6.53;;;1.73;;
27558;SDS011;15002;52.028;5.670;2022-08-01T12:06:44;10.82;;;2.03;;
27558;SDS011;15002;52.028;5.670;2022-08-01T12:09:17;6.25;;;2.28;;
27558;SDS011;15002;52.028;5.670;2022-08-01T12:11:48;4.38;;;2.20;;
27558;SDS011;15002;52.028;5.670;2022-08-01T12:14:20;5.72;;;2.03;;
27558;SDS011;15002;52.028;5.670;2022-08-01T12:16:53;4.78;;;1.67;;
27558;SDS011;15002;52.028;5.670;2022-08-01T12:19:22;7.05;;;2.10;;
27558;SDS011;15002;52.028;5.670;2022-08-01T12:22:04;6.90;;;2.10;;
27558;SDS011;15002;52.028;5.670;2022-08-01T12:24:34;4.40;;;1.80;;
27558;SDS011;15002;52.028;5.670;2022-08-01T12:27:01;5.25;;;2.28;;
27558;SDS011;15002;52.028;5.670;2022-08-01T12:29:34;7.05;;;1.90;;
27558;SDS011;15002;52.028;5.670;2022-08-01T12:32:01;2.97;;;1.70;;
27558;SDS011;15002;52.028;5.670;2022-08-01T12:34:30;5.28;;;1.85;;
27558;SDS011;15002;52.028;5.670;2022-08-01T12:36:59;5.00;;;1.70;;
27558;SDS011;15002;52.028;5.670;2022-08-01T12:39:29;6.10;;;1.95;;
27558;SDS011;15002;52.028;5.670;2022-08-01T12:41:58;7.40;;;1.98;;
27558;SDS011;15002;52.028;5.670;2022-08-01T12:44:25;8.15;;;1.88;;
27558;SDS011;15002;52.028;5.670;2022-08-01T12:46:52;4.15;;;1.50;;
27558;SDS011;15002;52.028;5.670;2022-08-01T12:49:18;5.40;;;2.00;;
27558;SDS011;15002;52.028;5.670;2022-08-01T12:51:44;6.20;;;1.65;;
27558;SDS011;15002;52.028;5.670;2022-08-01T12:54:10;4.82;;;1.83;;
27558;SDS011;15002;52.028;5.670;2022-08-01T12:56:35;9.07;;;2.45;;
27558;SDS011;15002;52.028;5.670;2022-08-01T12:59:01;4.50;;;2.50;;
27558;SDS011;15002;52.028;5.670;2022-08-01T13:01:45;9.02;;;2.22;;
27558;SDS011;15002;52.028;5.670;2022-08-01T13:04:11;3.70;;;2.03;;
27558;SDS011;15002;52.028;5.670;2022-08-01T13:06:37;5.80;;;1.90;;
27558;SDS011;15002;52.028;5.670;2022-08-01T13:09:09;8.98;;;2.28;;
27558;SDS011;15002;52.028;5.670;2022-08-01T13:11:39;5.50;;;1.98;;
27558;SDS011;15002;52.028;5.670;2022-08-01T13:14:05;6.47;;;2.40;;
27558;SDS011;15002;52.028;5.670;2022-08-01T13:16:31;7.53;;;2.08;;
27558;SDS011;15002;52.028;5.670;2022-08-01T13:18:57;4.57;;;1.48;;
27558;SDS011;15002;52.028;5.670;2022-08-01T13:21:27;4.45;;;1.50;;
27558;SDS011;15002;52.028;5.670;2022-08-01T13:29:05;3.03;;;1.38;;
27558;SDS011;15002;52.028;5.670;2022-08-01T13:31:32;4.32;;;1.35;;
27558;SDS011;15002;52.028;5.670;2022-08-01T13:33:59;4.18;;;1.50;;
27558;SDS011;15002;52.028;5.670;2022-08-01T13:36:24;5.45;;;1.65;;
27558;SDS011;15002;52.028;5.670;2022-08-01T13:38:54;3.22;;;1.50;;
27558;SDS011;15002;52.028;5.670;2022-08-01T13:41:38;5.60;;;1.60;;
27558;SDS011;15002;52.028;5.670;2022-08-01T13:44:04;3.97;;;1.30;;
27558;SDS011;15002;52.028;5.670;2022-08-01T13:46:30;5.53;;;1.40;;
27558;SDS011;15002;52.028;5.670;2022-08-01T13:48:56;3.05;;;1.00;;
27558;SDS011;15002;52.028;5.670;2022-08-01T13:51:22;3.47;;;1.42;;
27558;SDS011;15002;52.028;5.670;2022-08-01T13:53:48;2.53;;;1.10;;
27558;SDS011;15002;52.028;5.670;2022-08-01T13:56:13;5.72;;;1.35;;
27558;SDS011;15002;52.028;5.670;2022-08-01T13:58:41;2.10;;;0.98;;
27558;SDS011;15002;52.028;5.670;2022-08-01T14:01:06;3.47;;;1.20;;
27558;SDS011;15002;52.028;5.670;2022-08-01T14:03:32;3.58;;;1.20;;
27558;SDS011;15002;52.028;5.670;2022-08-01T14:05:58;2.47;;;1.00;;
27558;SDS011;15002;52.028;5.670;2022-08-01T14:08:23;2.55;;;1.10;;
27558;SDS011;15002;52.028;5.670;2022-08-01T14:10:49;4.07;;;1.10;;
27558;SDS011;15002;52.028;5.670;2022-08-01T14:13:16;2.65;;;0.88;;
27558;SDS011;15002;52.028;5.670;2022-08-01T14:15:42;3.08;;;1.30;;
27558;SDS011;15002;52.028;5.670;2022-08-01T14:18:08;2.03;;;0.82;;
27558;SDS011;15002;52.028;5.670;2022-08-01T14:20:34;1.65;;;0.90;;
27558;SDS011;15002;52.028;5.670;2022-08-01T14:23:01;6.03;;;1.60;;
27558;SDS011;15002;52.028;5.670;2022-08-01T14:25:27;1.88;;;1.10;;
27558;SDS011;15002;52.028;5.670;2022-08-01T14:27:53;2.67;;;1.00;;
27558;SDS011;15002;52.028;5.670;2022-08-01T14:30:19;1.55;;;0.90;;
27558;SDS011;15002;52.028;5.670;2022-08-01T14:32:45;1.83;;;0.85;;
27558;SDS011;15002;52.028;5.670;2022-08-01T14:35:11;2.85;;;0.90;;
27558;SDS011;15002;52.028;5.670;2022-08-01T14:37:36;2.15;;;0.93;;
27558;SDS011;15002;52.028;5.670;2022-08-01T14:40:02;3.13;;;1.08;;
27558;SDS011;15002;52.028;5.670;2022-08-01T14:42:30;2.28;;;1.05;;
27558;SDS011;15002;52.028;5.670;2022-08-01T14:44:56;2.25;;;1.10;;
27558;SDS011;15002;52.028;5.670;2022-08-01T14:47:22;1.20;;;0.90;;
27558;SDS011;15002;52.028;5.670;2022-08-01T14:49:48;4.22;;;1.20;;
27558;SDS011;15002;52.028;5.670;2022-08-01T14:52:14;2.72;;;1.00;;
27558;SDS011;15002;52.028;5.670;2022-08-01T14:54:40;1.38;;;0.80;;
27558;SDS011;15002;52.028;5.670;2022-08-01T14:57:06;2.75;;;0.90;;
27558;SDS011;15002;52.028;5.670;2022-08-01T14:59:31;1.30;;;0.90;;
27558;SDS011;15002;52.028;5.670;2022-08-01T15:01:57;2.15;;;0.90;;
27558;SDS011;15002;52.028;5.670;2022-08-01T15:04:23;3.20;;;1.20;;
27558;SDS011;15002;52.028;5.670;2022-08-01T15:06:49;2.92;;;1.15;;
27558;SDS011;15002;52.028;5.670;2022-08-01T15:09:14;2.45;;;1.10;;
27558;SDS011;15002;52.028;5.670;2022-08-01T15:11:40;3.72;;;1.20;;
27558;SDS011;15002;52.028;5.670;2022-08-01T15:14:06;3.17;;;1.25;;
27558;SDS011;15002;52.028;5.670;2022-08-01T15:16:50;5.18;;;1.23;;
27558;SDS011;15002;52.028;5.670;2022-08-01T15:19:15;5.03;;;1.00;;
27558;SDS011;15002;52.028;5.670;2022-08-01T15:21:41;3.45;;;1.00;;
27558;SDS011;15002;52.028;5.670;2022-08-01T15:24:07;5.25;;;1.20;;
27558;SDS011;15002;52.028;5.670;2022-08-01T15:26:34;2.90;;;0.98;;
27558;SDS011;15002;52.028;5.670;2022-08-01T15:29:00;3.78;;;1.10;;
27558;SDS011;15002;52.028;5.670;2022-08-01T15:31:26;1.55;;;0.80;;
27558;SDS011;15002;52.028;5.670;2022-08-01T15:33:51;1.50;;;0.82;;
27558;SDS011;15002;52.028;5.670;2022-08-01T15:36:17;1.42;;;0.80;;